sensor_id;sensor_type;location;lat;lon;timestamp;temperature;humidity
3976;DHT22;2002;48.812;9.180;2023-02-28T00:00:47;15.90;1.00
3976;DHT22;2002;48.812;9.180;2023-02-28T00:03:13;15.90;1.00
3976;DHT22;2002;48.812;9.180;2023-02-28T00:05:39;15.80;1.00
3976;DHT22;2002;48.812;9.180;2023-02-28T00:08:04;15.80;1.00
3976;DHT22;2002;48.812;9.180;2023-02-28T00:10:31;15.80;1.00
3976;DHT22;2002;48.812;9.180;2023-02-28T00:13:01;15.70;1.00
3976;DHT22;2002;48.812;9.180;2023-02-28T00:15:27;15.70;1.00
3976;DHT22;2002;48.812;9.180;2023-02-28T00:17:53;15.70;1.00
3976;DHT22;2002;48.812;9.180;2023-02-28T00:20:19;15.70;1.00
3976;DHT22;2002;48.812;9.180;2023-02-28T00:22:47;15.70;1.00
3976;DHT22;2002;48.812;9.180;2023-02-28T00:25:15;15.70;1.00
3976;DHT22;2002;48.812;9.180;2023-02-28T00:27:41;15.70;1.00
3976;DHT22;2002;48.812;9.180;2023-02-28T00:30:12;15.70;1.00
3976;DHT22;2002;48.812;9.180;2023-02-28T00:32:39;15.60;1.00
3976;DHT22;2002;48.812;9.180;2023-02-28T00:35:05;15.60;1.00
3976;DHT22;2002;48.812;9.180;2023-02-28T00:37:31;15.60;1.00
3976;DHT22;2002;48.812;9.180;2023-02-28T00:39:57;15.60;1.00
3976;DHT22;2002;48.812;9.180;2023-02-28T00:42:23;15.50;1.00
3976;DHT22;2002;48.812;9.180;2023-02-28T00:44:49;15.60;1.00
3976;DHT22;2002;48.812;9.180;2023-02-28T00:47:15;15.70;1.00
3976;DHT22;2002;48.812;9.180;2023-02-28T00:49:41;15.90;1.00
3976;DHT22;2002;48.812;9.180;2023-02-28T00:52:06;16.10;1.00
3976;DHT22;2002;48.812;9.180;2023-02-28T00:54:32;16.20;1.00
3976;DHT22;2002;48.812;9.180;2023-02-28T00:56:58;16.30;1.00
3976;DHT22;2002;48.812;9.180;2023-02-28T00:59:23;16.40;1.00
3976;DHT22;2002;48.812;9.180;2023-02-28T01:01:49;16.40;1.00
3976;DHT22;2002;48.812;9.180;2023-02-28T01:04:15;16.30;1.00
3976;DHT22;2002;48.812;9.180;2023-02-28T01:06:41;16.30;1.00
3976;DHT22;2002;48.812;9.180;2023-02-28T01:09:08;16.30;1.00
3976;DHT22;2002;48.812;9.180;2023-02-28T01:11:34;16.20;1.00
3976;DHT22;2002;48.812;9.180;2023-02-28T01:14:00;16.10;1.00
3976;DHT22;2002;48.812;9.180;2023-02-28T01:16:25;16.10;1.00
3976;DHT22;2002;48.812;9.180;2023-02-28T01:18:51;16.10;1.00
3976;DHT22;2002;48.812;9.180;2023-02-28T01:21:19;16.00;1.00
3976;DHT22;2002;48.812;9.180;2023-02-28T01:23:45;16.00;1.00
3976;DHT22;2002;48.812;9.180;2023-02-28T01:26:20;15.90;1.00
3976;DHT22;2002;48.812;9.180;2023-02-28T01:28:46;15.90;1.00
3976;DHT22;2002;48.812;9.180;2023-02-28T01:31:12;15.90;1.00
3976;DHT22;2002;48.812;9.180;2023-02-28T01:33:38;15.80;1.00
3976;DHT22;2002;48.812;9.180;2023-02-28T01:36:07;15.80;1.00
3976;DHT22;2002;48.812;9.180;2023-02-28T01:38:34;15.80;1.00
3976;DHT22;2002;48.812;9.180;2023-02-28T01:41:00;15.80;1.00
3976;DHT22;2002;48.812;9.180;2023-02-28T01:43:28;15.70;1.00
3976;DHT22;2002;48.812;9.180;2023-02-28T01:45:55;15.70;1.00
3976;DHT22;2002;48.812;9.180;2023-02-28T01:48:26;15.70;1.00
3976;DHT22;2002;48.812;9.180;2023-02-28T01:50:53;15.70;1.00
3976;DHT22;2002;48.812;9.180;2023-02-28T01:53:33;15.60;1.00
3976;DHT22;2002;48.812;9.180;2023-02-28T01:56:00;15.60;1.00
3976;DHT22;2002;48.812;9.180;2023-02-28T01:58:28;15.70;1.00
3976;DHT22;2002;48.812;9.180;2023-02-28T02:00:54;15.60;1.00
3976;DHT22;2002;48.812;9.180;2023-02-28T02:03:20;15.60;1.00
3976;DHT22;2002;48.812;9.180;2023-02-28T02:05:46;15.60;1.00
3976;DHT22;2002;48.812;9.180;2023-02-28T02:08:17;15.60;1.00
3976;DHT22;2002;48.812;9.180;2023-02-28T02:10:46;15.70;1.00
3976;DHT22;2002;48.812;9.180;2023-02-28T02:13:28;16.00;1.00
3976;DHT22;2002;48.812;9.180;2023-02-28T02:16:09;16.20;1.00
3976;DHT22;2002;48.812;9.180;2023-02-28T02:18:52;16.50;1.00
3976;DHT22;2002;48.812;9.180;2023-02-28T02:30:42;16.50;1.00
3976;DHT22;2002;48.812;9.180;2023-02-28T02:33:19;16.40;1.00
3976;DHT22;2002;48.812;9.180;2023-02-28T02:36:12;16.30;1.00
3976;DHT22;2002;48.812;9.180;2023-02-28T02:38:45;16.20;1.00
3976;DHT22;2002;48.812;9.180;2023-02-28T02:41:18;16.20;1.00
3976;DHT22;2002;48.812;9.180;2023-02-28T02:43:49;16.20;1.00
3976;DHT22;2002;48.812;9.180;2023-02-28T02:46:29;16.10;1.00
3976;DHT22;2002;48.812;9.180;2023-02-28T02:48:57;16.00;1.00
3976;DHT22;2002;48.812;9.180;2023-02-28T02:51:24;16.00;1.00
3976;DHT22;2002;48.812;9.180;2023-02-28T02:53:58;15.90;1.00
3976;DHT22;2002;48.812;9.180;2023-02-28T02:56:28;15.90;1.00
3976;DHT22;2002;48.812;9.180;2023-02-28T02:58:58;15.90;1.00
3976;DHT22;2002;48.812;9.180;2023-02-28T03:01:27;15.80;1.00
3976;DHT22;2002;48.812;9.180;2023-02-28T03:03:56;15.80;1.00
3976;DHT22;2002;48.812;9.180;2023-02-28T03:06:24;15.80;1.00
3976;DHT22;2002;48.812;9.180;2023-02-28T03:08:50;15.80;1.00
3976;DHT22;2002;48.812;9.180;2023-02-28T03:11:15;15.80;1.00
3976;DHT22;2002;48.812;9.180;2023-02-28T03:16:54;15.70;1.00
3976;DHT22;2002;48.812;9.180;2023-02-28T03:22:23;15.70;1.00
3976;DHT22;2002;48.812;9.180;2023-02-28T03:27:27;15.60;1.00
3976;DHT22;2002;48.812;9.180;2023-02-28T03:30:22;15.60;1.00
3976;DHT22;2002;48.812;9.180;2023-02-28T03:33:00;15.60;1.00
3976;DHT22;2002;48.812;9.180;2023-02-28T03:35:32;15.50;1.00
3976;DHT22;2002;48.812;9.180;2023-02-28T03:38:19;15.50;1.00
3976;DHT22;2002;48.812;9.180;2023-02-28T03:40:50;15.50;1.00
3976;DHT22;2002;48.812;9.180;2023-02-28T03:43:24;15.60;1.00
3976;DHT22;2002;48.812;9.180;2023-02-28T03:45:51;15.80;1.00
3976;DHT22;2002;48.812;9.180;2023-02-28T03:48:22;16.00;1.00
3976;DHT22;2002;48.812;9.180;2023-02-28T03:50:53;16.30;1.00
3976;DHT22;2002;48.812;9.180;2023-02-28T03:53:30;16.50;1.00
3976;DHT22;2002;48.812;9.180;2023-02-28T03:56:19;16.60;1.00
3976;DHT22;2002;48.812;9.180;2023-02-28T04:01:39;16.50;1.00
3976;DHT22;2002;48.812;9.180;2023-02-28T04:04:07;16.50;1.00
3976;DHT22;2002;48.812;9.180;2023-02-28T04:06:33;16.30;1.00
3976;DHT22;2002;48.812;9.180;2023-02-28T04:08:59;16.30;1.00
3976;DHT22;2002;48.812;9.180;2023-02-28T04:13:58;16.20;1.00
3976;DHT22;2002;48.812;9.180;2023-02-28T04:16:23;16.10;1.00
3976;DHT22;2002;48.812;9.180;2023-02-28T04:18:49;16.10;1.00
3976;DHT22;2002;48.812;9.180;2023-02-28T04:21:15;16.00;1.00
3976;DHT22;2002;48.812;9.180;2023-02-28T04:23:40;16.00;1.00
3976;DHT22;2002;48.812;9.180;2023-02-28T04:26:06;15.90;1.00
3976;DHT22;2002;48.812;9.180;2023-02-28T04:28:33;15.90;1.00
3976;DHT22;2002;48.812;9.180;2023-02-28T04:31:03;15.90;1.00
3976;DHT22;2002;48.812;9.180;2023-02-28T04:33:30;15.80;1.00
3976;DHT22;2002;48.812;9.180;2023-02-28T04:36:02;15.80;1.00
3976;DHT22;2002;48.812;9.180;2023-02-28T04:38:29;15.80;1.00
3976;DHT22;2002;48.812;9.180;2023-02-28T04:40:57;15.70;1.00
3976;DHT22;2002;48.812;9.180;2023-02-28T04:43:23;15.70;1.00
3976;DHT22;2002;48.812;9.180;2023-02-28T04:45:49;15.70;1.00
3976;DHT22;2002;48.812;9.180;2023-02-28T04:48:14;15.70;1.00
3976;DHT22;2002;48.812;9.180;2023-02-28T04:50:40;15.70;1.00
3976;DHT22;2002;48.812;9.180;2023-02-28T04:53:05;15.70;1.00
3976;DHT22;2002;48.812;9.180;2023-02-28T04:55:31;15.60;1.00
3976;DHT22;2002;48.812;9.180;2023-02-28T04:57:56;15.60;1.00
3976;DHT22;2002;48.812;9.180;2023-02-28T05:00:23;15.60;1.00
3976;DHT22;2002;48.812;9.180;2023-02-28T05:02:48;15.60;1.00
3976;DHT22;2002;48.812;9.180;2023-02-28T05:05:14;15.60;1.00
3976;DHT22;2002;48.812;9.180;2023-02-28T05:07:44;15.60;1.00
3976;DHT22;2002;48.812;9.180;2023-02-28T05:10:11;15.60;1.00
3976;DHT22;2002;48.812;9.180;2023-02-28T05:12:36;15.60;1.00
3976;DHT22;2002;48.812;9.180;2023-02-28T05:15:03;15.60;1.00
3976;DHT22;2002;48.812;9.180;2023-02-28T05:17:30;15.70;1.00
3976;DHT22;2002;48.812;9.180;2023-02-28T05:19:55;15.90;1.00
3976;DHT22;2002;48.812;9.180;2023-02-28T05:22:21;16.10;1.00
3976;DHT22;2002;48.812;9.180;2023-02-28T05:24:47;16.20;1.00
3976;DHT22;2002;48.812;9.180;2023-02-28T05:27:12;16.20;1.00
3976;DHT22;2002;48.812;9.180;2023-02-28T05:29:38;16.20;1.00
3976;DHT22;2002;48.812;9.180;2023-02-28T05:32:12;16.10;1.00
3976;DHT22;2002;48.812;9.180;2023-02-28T05:34:38;16.20;1.00
3976;DHT22;2002;48.812;9.180;2023-02-28T05:37:06;16.20;1.00
3976;DHT22;2002;48.812;9.180;2023-02-28T05:39:32;16.10;1.00
3976;DHT22;2002;48.812;9.180;2023-02-28T05:41:58;16.00;1.00
3976;DHT22;2002;48.812;9.180;2023-02-28T05:44:24;16.00;1.00
3976;DHT22;2002;48.812;9.180;2023-02-28T05:46:49;16.00;1.00
3976;DHT22;2002;48.812;9.180;2023-02-28T05:49:15;16.00;1.00
3976;DHT22;2002;48.812;9.180;2023-02-28T05:51:40;15.90;1.00
3976;DHT22;2002;48.812;9.180;2023-02-28T05:54:06;15.90;1.00
3976;DHT22;2002;48.812;9.180;2023-02-28T05:56:32;15.90;1.00
3976;DHT22;2002;48.812;9.180;2023-02-28T05:58:59;15.90;1.00
3976;DHT22;2002;48.812;9.180;2023-02-28T06:04:03;15.90;1.00
3976;DHT22;2002;48.812;9.180;2023-02-28T06:06:29;15.80;1.00
3976;DHT22;2002;48.812;9.180;2023-02-28T06:08:55;15.80;1.00
3976;DHT22;2002;48.812;9.180;2023-02-28T06:11:21;15.80;1.00
3976;DHT22;2002;48.812;9.180;2023-02-28T06:13:53;15.80;1.00
3976;DHT22;2002;48.812;9.180;2023-02-28T06:16:19;15.80;1.00
3976;DHT22;2002;48.812;9.180;2023-02-28T06:18:45;15.80;1.00
3976;DHT22;2002;48.812;9.180;2023-02-28T06:21:12;15.80;1.00
3976;DHT22;2002;48.812;9.180;2023-02-28T06:23:37;15.70;1.00
3976;DHT22;2002;48.812;9.180;2023-02-28T06:26:03;15.70;1.00
3976;DHT22;2002;48.812;9.180;2023-02-28T06:28:29;15.70;1.00
3976;DHT22;2002;48.812;9.180;2023-02-28T06:30:54;15.70;1.00
3976;DHT22;2002;48.812;9.180;2023-02-28T06:33:20;15.70;1.00
3976;DHT22;2002;48.812;9.180;2023-02-28T06:35:52;15.70;1.00
3976;DHT22;2002;48.812;9.180;2023-02-28T06:38:18;15.80;1.00
3976;DHT22;2002;48.812;9.180;2023-02-28T06:40:44;15.70;1.00
3976;DHT22;2002;48.812;9.180;2023-02-28T06:43:10;15.70;1.00
3976;DHT22;2002;48.812;9.180;2023-02-28T06:45:43;15.70;1.00
3976;DHT22;2002;48.812;9.180;2023-02-28T06:48:09;15.70;1.00
3976;DHT22;2002;48.812;9.180;2023-02-28T06:50:35;15.70;1.00
3976;DHT22;2002;48.812;9.180;2023-02-28T06:53:01;15.80;1.00
3976;DHT22;2002;48.812;9.180;2023-02-28T06:55:26;15.80;1.00
3976;DHT22;2002;48.812;9.180;2023-02-28T06:57:52;15.90;1.00
3976;DHT22;2002;48.812;9.180;2023-02-28T07:00:18;16.00;1.00
3976;DHT22;2002;48.812;9.180;2023-02-28T07:02:43;16.00;1.00
3976;DHT22;2002;48.812;9.180;2023-02-28T07:05:09;16.00;1.00
3976;DHT22;2002;48.812;9.180;2023-02-28T07:07:35;15.90;1.00
3976;DHT22;2002;48.812;9.180;2023-02-28T07:10:03;15.90;1.00
3976;DHT22;2002;48.812;9.180;2023-02-28T07:12:29;15.90;1.00
3976;DHT22;2002;48.812;9.180;2023-02-28T07:14:54;15.90;1.00
3976;DHT22;2002;48.812;9.180;2023-02-28T07:17:21;15.80;1.00
3976;DHT22;2002;48.812;9.180;2023-02-28T07:19:46;15.80;1.00
3976;DHT22;2002;48.812;9.180;2023-02-28T07:22:12;15.80;1.00
3976;DHT22;2002;48.812;9.180;2023-02-28T07:24:38;15.80;1.00
3976;DHT22;2002;48.812;9.180;2023-02-28T07:27:03;15.80;1.00
3976;DHT22;2002;48.812;9.180;2023-02-28T07:29:29;15.80;1.00
3976;DHT22;2002;48.812;9.180;2023-02-28T07:31:55;15.80;1.00
3976;DHT22;2002;48.812;9.180;2023-02-28T07:34:21;15.80;1.00
3976;DHT22;2002;48.812;9.180;2023-02-28T07:36:47;15.80;1.00
3976;DHT22;2002;48.812;9.180;2023-02-28T07:39:13;15.80;1.00
3976;DHT22;2002;48.812;9.180;2023-02-28T07:41:38;15.70;1.00
3976;DHT22;2002;48.812;9.180;2023-02-28T07:44:12;15.70;1.00
3976;DHT22;2002;48.812;9.180;2023-02-28T07:46:37;15.70;1.00
3976;DHT22;2002;48.812;9.180;2023-02-28T07:49:04;15.70;1.00
3976;DHT22;2002;48.812;9.180;2023-02-28T07:51:30;15.80;1.00
3976;DHT22;2002;48.812;9.180;2023-02-28T07:53:56;15.70;1.00
3976;DHT22;2002;48.812;9.180;2023-02-28T07:56:22;15.70;1.00
3976;DHT22;2002;48.812;9.180;2023-02-28T07:58:47;15.70;1.00
3976;DHT22;2002;48.812;9.180;2023-02-28T08:01:13;15.70;1.00
3976;DHT22;2002;48.812;9.180;2023-02-28T08:03:39;15.70;1.00
3976;DHT22;2002;48.812;9.180;2023-02-28T08:06:07;15.60;1.00
3976;DHT22;2002;48.812;9.180;2023-02-28T08:08:32;15.60;1.00
3976;DHT22;2002;48.812;9.180;2023-02-28T08:11:00;15.70;1.00
3976;DHT22;2002;48.812;9.180;2023-02-28T08:13:27;15.70;1.00
3976;DHT22;2002;48.812;9.180;2023-02-28T08:15:54;15.70;1.00
3976;DHT22;2002;48.812;9.180;2023-02-28T08:18:20;15.70;1.00
3976;DHT22;2002;48.812;9.180;2023-02-28T08:20:46;15.80;1.00
3976;DHT22;2002;48.812;9.180;2023-02-28T08:23:12;15.90;1.00
3976;DHT22;2002;48.812;9.180;2023-02-28T08:25:38;16.00;1.00
3976;DHT22;2002;48.812;9.180;2023-02-28T08:28:03;16.10;1.00
3976;DHT22;2002;48.812;9.180;2023-02-28T08:30:29;16.10;1.00
3976;DHT22;2002;48.812;9.180;2023-02-28T08:32:55;16.00;1.00
3976;DHT22;2002;48.812;9.180;2023-02-28T08:35:21;16.00;1.00
3976;DHT22;2002;48.812;9.180;2023-02-28T08:37:49;16.00;1.00
3976;DHT22;2002;48.812;9.180;2023-02-28T08:40:16;15.90;1.00
3976;DHT22;2002;48.812;9.180;2023-02-28T08:42:47;15.90;1.00
3976;DHT22;2002;48.812;9.180;2023-02-28T08:45:14;15.90;1.00
3976;DHT22;2002;48.812;9.180;2023-02-28T08:47:40;15.90;1.00
3976;DHT22;2002;48.812;9.180;2023-02-28T08:50:06;15.90;1.00
3976;DHT22;2002;48.812;9.180;2023-02-28T08:52:32;15.90;1.00
3976;DHT22;2002;48.812;9.180;2023-02-28T08:54:58;15.90;1.00
3976;DHT22;2002;48.812;9.180;2023-02-28T08:57:23;15.80;1.00
3976;DHT22;2002;48.812;9.180;2023-02-28T08:59:51;15.80;1.00
3976;DHT22;2002;48.812;9.180;2023-02-28T09:02:17;15.80;1.00
3976;DHT22;2002;48.812;9.180;2023-02-28T09:04:43;15.80;1.00
3976;DHT22;2002;48.812;9.180;2023-02-28T09:07:11;15.80;1.00
3976;DHT22;2002;48.812;9.180;2023-02-28T09:09:36;15.80;1.00
3976;DHT22;2002;48.812;9.180;2023-02-28T09:12:02;15.80;1.00
3976;DHT22;2002;48.812;9.180;2023-02-28T09:14:28;15.80;1.00
3976;DHT22;2002;48.812;9.180;2023-02-28T09:16:53;15.70;1.00
3976;DHT22;2002;48.812;9.180;2023-02-28T09:19:20;15.70;1.00
3976;DHT22;2002;48.812;9.180;2023-02-28T09:21:45;15.70;1.00
3976;DHT22;2002;48.812;9.180;2023-02-28T09:24:11;15.70;1.00
3976;DHT22;2002;48.812;9.180;2023-02-28T09:26:39;15.80;1.00
3976;DHT22;2002;48.812;9.180;2023-02-28T09:29:05;15.70;1.00
3976;DHT22;2002;48.812;9.180;2023-02-28T09:31:32;15.70;1.00
3976;DHT22;2002;48.812;9.180;2023-02-28T09:33:58;15.70;1.00
3976;DHT22;2002;48.812;9.180;2023-02-28T09:36:25;15.80;1.00
3976;DHT22;2002;48.812;9.180;2023-02-28T09:38:51;15.70;1.00
3976;DHT22;2002;48.812;9.180;2023-02-28T09:41:23;15.60;1.00
3976;DHT22;2002;48.812;9.180;2023-02-28T09:43:55;15.60;1.00
3976;DHT22;2002;48.812;9.180;2023-02-28T09:46:34;15.70;1.00
3976;DHT22;2002;48.812;9.180;2023-02-28T09:49:05;15.60;1.00
3976;DHT22;2002;48.812;9.180;2023-02-28T09:54:24;15.80;1.00
3976;DHT22;2002;48.812;9.180;2023-02-28T09:57:07;15.90;1.00
3976;DHT22;2002;48.812;9.180;2023-02-28T10:04:54;16.10;1.00
3976;DHT22;2002;48.812;9.180;2023-02-28T10:07:50;16.10;1.00
3976;DHT22;2002;48.812;9.180;2023-02-28T10:10:27;16.00;1.00
3976;DHT22;2002;48.812;9.180;2023-02-28T10:12:57;16.00;1.00
3976;DHT22;2002;48.812;9.180;2023-02-28T10:15:25;16.00;1.00
3976;DHT22;2002;48.812;9.180;2023-02-28T10:18:14;16.00;1.00
3976;DHT22;2002;48.812;9.180;2023-02-28T10:20:43;15.90;1.00
3976;DHT22;2002;48.812;9.180;2023-02-28T10:23:19;15.90;1.00
3976;DHT22;2002;48.812;9.180;2023-02-28T10:25:50;15.90;1.00
3976;DHT22;2002;48.812;9.180;2023-02-28T10:28:18;15.90;1.00
3976;DHT22;2002;48.812;9.180;2023-02-28T10:30:49;15.80;1.00
3976;DHT22;2002;48.812;9.180;2023-02-28T10:33:33;15.80;1.00
3976;DHT22;2002;48.812;9.180;2023-02-28T10:36:00;15.80;1.00
3976;DHT22;2002;48.812;9.180;2023-02-28T10:38:36;15.80;1.00
3976;DHT22;2002;48.812;9.180;2023-02-28T10:41:09;15.80;1.00
3976;DHT22;2002;48.812;9.180;2023-02-28T10:43:37;15.80;1.00
3976;DHT22;2002;48.812;9.180;2023-02-28T10:48:44;15.70;1.00
3976;DHT22;2002;48.812;9.180;2023-02-28T10:51:12;15.70;1.00
3976;DHT22;2002;48.812;9.180;2023-02-28T10:53:54;15.70;1.00
3976;DHT22;2002;48.812;9.180;2023-02-28T10:56:22;15.70;1.00
3976;DHT22;2002;48.812;9.180;2023-02-28T10:58:59;15.70;1.00
3976;DHT22;2002;48.812;9.180;2023-02-28T11:01:44;15.70;1.00
3976;DHT22;2002;48.812;9.180;2023-02-28T11:04:19;15.70;1.00
3976;DHT22;2002;48.812;9.180;2023-02-28T11:06:45;15.70;1.00
3976;DHT22;2002;48.812;9.180;2023-02-28T11:09:45;15.70;1.00
3976;DHT22;2002;48.812;9.180;2023-02-28T11:12:39;15.70;1.00
3976;DHT22;2002;48.812;9.180;2023-02-28T11:15:19;15.60;1.00
3976;DHT22;2002;48.812;9.180;2023-02-28T11:18:01;15.70;1.00
3976;DHT22;2002;48.812;9.180;2023-02-28T11:20:30;15.60;1.00
3976;DHT22;2002;48.812;9.180;2023-02-28T11:22:59;15.60;1.00
3976;DHT22;2002;48.812;9.180;2023-02-28T11:25:38;15.60;1.00
3976;DHT22;2002;48.812;9.180;2023-02-28T11:28:06;15.70;1.00
3976;DHT22;2002;48.812;9.180;2023-02-28T11:31:15;15.90;1.00
3976;DHT22;2002;48.812;9.180;2023-02-28T11:33:55;16.20;1.00
3976;DHT22;2002;48.812;9.180;2023-02-28T11:36:24;16.40;1.00
3976;DHT22;2002;48.812;9.180;2023-02-28T11:38:51;16.50;1.00
3976;DHT22;2002;48.812;9.180;2023-02-28T11:50:18;16.20;1.00
3976;DHT22;2002;48.812;9.180;2023-02-28T11:55:25;16.10;1.00
3976;DHT22;2002;48.812;9.180;2023-02-28T11:58:05;16.10;1.00
3976;DHT22;2002;48.812;9.180;2023-02-28T12:05:46;15.90;1.00
3976;DHT22;2002;48.812;9.180;2023-02-28T12:11:39;15.90;1.00
3976;DHT22;2002;48.812;9.180;2023-02-28T12:20:13;15.80;1.00
3976;DHT22;2002;48.812;9.180;2023-02-28T12:22:55;15.80;1.00
3976;DHT22;2002;48.812;9.180;2023-02-28T12:27:55;15.70;1.00
3976;DHT22;2002;48.812;9.180;2023-02-28T12:30:22;15.80;1.00
3976;DHT22;2002;48.812;9.180;2023-02-28T12:33:08;15.70;1.00
3976;DHT22;2002;48.812;9.180;2023-02-28T12:35:39;15.70;1.00
3976;DHT22;2002;48.812;9.180;2023-02-28T12:38:14;15.70;1.00
3976;DHT22;2002;48.812;9.180;2023-02-28T12:43:30;15.70;1.00
3976;DHT22;2002;48.812;9.180;2023-02-28T12:46:00;15.70;1.00
3976;DHT22;2002;48.812;9.180;2023-02-28T12:48:42;15.70;1.00
3976;DHT22;2002;48.812;9.180;2023-02-28T12:51:09;15.70;1.00
3976;DHT22;2002;48.812;9.180;2023-02-28T12:56:45;15.60;1.00
3976;DHT22;2002;48.812;9.180;2023-02-28T12:59:32;15.60;1.00
3976;DHT22;2002;48.812;9.180;2023-02-28T13:04:42;15.60;1.00
3976;DHT22;2002;48.812;9.180;2023-02-28T13:09:40;16.00;1.00
3976;DHT22;2002;48.812;9.180;2023-02-28T13:12:13;16.30;1.00
3976;DHT22;2002;48.812;9.180;2023-02-28T13:14:40;16.50;1.00
3976;DHT22;2002;48.812;9.180;2023-02-28T13:19:36;16.60;1.00
3976;DHT22;2002;48.812;9.180;2023-02-28T13:22:04;16.50;1.00
3976;DHT22;2002;48.812;9.180;2023-02-28T13:24:41;16.40;1.00
3976;DHT22;2002;48.812;9.180;2023-02-28T13:29:43;16.30;1.00
3976;DHT22;2002;48.812;9.180;2023-02-28T13:39:53;16.00;1.00
3976;DHT22;2002;48.812;9.180;2023-02-28T13:47:38;15.90;1.00
3976;DHT22;2002;48.812;9.180;2023-02-28T14:01:27;15.80;1.00
3976;DHT22;2002;48.812;9.180;2023-02-28T14:04:02;15.80;1.00
3976;DHT22;2002;48.812;9.180;2023-02-28T14:06:36;15.80;1.00
3976;DHT22;2002;48.812;9.180;2023-02-28T14:09:21;15.80;1.00
3976;DHT22;2002;48.812;9.180;2023-02-28T14:11:48;15.70;1.00
3976;DHT22;2002;48.812;9.180;2023-02-28T14:17:06;15.70;1.00
3976;DHT22;2002;48.812;9.180;2023-02-28T14:19:36;15.70;1.00
3976;DHT22;2002;48.812;9.180;2023-02-28T14:27:50;15.70;1.00
3976;DHT22;2002;48.812;9.180;2023-02-28T14:33:27;15.70;1.00
3976;DHT22;2002;48.812;9.180;2023-02-28T14:41:17;15.60;1.00
3976;DHT22;2002;48.812;9.180;2023-02-28T14:44:01;15.60;1.00
3976;DHT22;2002;48.812;9.180;2023-02-28T14:46:35;15.70;1.00
3976;DHT22;2002;48.812;9.180;2023-02-28T14:49:03;15.90;1.00
3976;DHT22;2002;48.812;9.180;2023-02-28T14:51:29;16.20;1.00
3976;DHT22;2002;48.812;9.180;2023-02-28T14:54:00;16.40;1.00
3976;DHT22;2002;48.812;9.180;2023-02-28T14:56:48;16.40;1.00
3976;DHT22;2002;48.812;9.180;2023-02-28T14:59:26;16.40;1.00
3976;DHT22;2002;48.812;9.180;2023-02-28T15:02:07;16.40;1.00
3976;DHT22;2002;48.812;9.180;2023-02-28T15:04:32;16.30;1.00
3976;DHT22;2002;48.812;9.180;2023-02-28T15:07:14;16.20;1.00
3976;DHT22;2002;48.812;9.180;2023-02-28T15:09:40;16.10;1.00
3976;DHT22;2002;48.812;9.180;2023-02-28T15:12:06;16.10;1.00
3976;DHT22;2002;48.812;9.180;2023-02-28T15:14:34;16.10;1.00
3976;DHT22;2002;48.812;9.180;2023-02-28T15:17:07;16.00;1.00
3976;DHT22;2002;48.812;9.180;2023-02-28T15:19:36;16.00;1.00
3976;DHT22;2002;48.812;9.180;2023-02-28T15:22:12;15.90;1.00
3976;DHT22;2002;48.812;9.180;2023-02-28T15:24:41;15.90;1.00
3976;DHT22;2002;48.812;9.180;2023-02-28T15:27:21;15.90;1.00
3976;DHT22;2002;48.812;9.180;2023-02-28T15:29:49;15.80;1.00
3976;DHT22;2002;48.812;9.180;2023-02-28T15:32:35;15.80;1.00
3976;DHT22;2002;48.812;9.180;2023-02-28T15:35:37;15.80;1.00
3976;DHT22;2002;48.812;9.180;2023-02-28T15:38:08;15.80;1.00
3976;DHT22;2002;48.812;9.180;2023-02-28T15:40:42;15.70;1.00
3976;DHT22;2002;48.812;9.180;2023-02-28T15:43:17;15.70;1.00
3976;DHT22;2002;48.812;9.180;2023-02-28T15:45:52;15.70;1.00
3976;DHT22;2002;48.812;9.180;2023-02-28T15:51:02;15.70;1.00
3976;DHT22;2002;48.812;9.180;2023-02-28T15:53:47;15.70;1.00
3976;DHT22;2002;48.812;9.180;2023-02-28T15:58:44;15.60;1.00
3976;DHT22;2002;48.812;9.180;2023-02-28T16:01:20;15.60;1.00
3976;DHT22;2002;48.812;9.180;2023-02-28T16:03:50;15.60;1.00
3976;DHT22;2002;48.812;9.180;2023-02-28T16:08:42;15.70;1.00
3976;DHT22;2002;48.812;9.180;2023-02-28T16:11:10;15.60;1.00
3976;DHT22;2002;48.812;9.180;2023-02-28T16:13:36;15.60;1.00
3976;DHT22;2002;48.812;9.180;2023-02-28T16:16:02;15.60;1.00
3976;DHT22;2002;48.812;9.180;2023-02-28T16:18:27;15.60;1.00
3976;DHT22;2002;48.812;9.180;2023-02-28T16:20:53;15.60;1.00
3976;DHT22;2002;48.812;9.180;2023-02-28T16:23:18;15.60;1.00
3976;DHT22;2002;48.812;9.180;2023-02-28T16:25:44;15.80;1.00
3976;DHT22;2002;48.812;9.180;2023-02-28T16:28:27;16.10;1.00
3976;DHT22;2002;48.812;9.180;2023-02-28T16:30:56;16.40;1.00
3976;DHT22;2002;48.812;9.180;2023-02-28T16:33:22;16.60;1.00
3976;DHT22;2002;48.812;9.180;2023-02-28T16:35:47;16.70;1.00
3976;DHT22;2002;48.812;9.180;2023-02-28T16:38:13;16.60;1.00
3976;DHT22;2002;48.812;9.180;2023-02-28T16:40:40;16.60;1.00
3976;DHT22;2002;48.812;9.180;2023-02-28T16:43:10;16.50;1.00
3976;DHT22;2002;48.812;9.180;2023-02-28T16:45:37;16.50;1.00
3976;DHT22;2002;48.812;9.180;2023-02-28T16:48:03;16.40;1.00
3976;DHT22;2002;48.812;9.180;2023-02-28T16:50:30;16.30;1.00
3976;DHT22;2002;48.812;9.180;2023-02-28T16:52:57;16.30;1.00
3976;DHT22;2002;48.812;9.180;2023-02-28T16:55:24;16.20;1.00
3976;DHT22;2002;48.812;9.180;2023-02-28T16:57:56;16.20;1.00
3976;DHT22;2002;48.812;9.180;2023-02-28T17:00:23;16.10;1.00
3976;DHT22;2002;48.812;9.180;2023-02-28T17:02:49;16.10;1.00
3976;DHT22;2002;48.812;9.180;2023-02-28T17:05:14;16.00;1.00
3976;DHT22;2002;48.812;9.180;2023-02-28T17:07:41;16.00;1.00
3976;DHT22;2002;48.812;9.180;2023-02-28T17:10:26;15.90;1.00
3976;DHT22;2002;48.812;9.180;2023-02-28T17:12:52;15.90;1.00
3976;DHT22;2002;48.812;9.180;2023-02-28T17:15:19;15.90;1.00
3976;DHT22;2002;48.812;9.180;2023-02-28T17:17:46;15.80;1.00
3976;DHT22;2002;48.812;9.180;2023-02-28T17:20:22;15.80;1.00
3976;DHT22;2002;48.812;9.180;2023-02-28T17:22:51;15.80;1.00
3976;DHT22;2002;48.812;9.180;2023-02-28T17:25:16;15.70;1.00
3976;DHT22;2002;48.812;9.180;2023-02-28T17:27:42;15.70;1.00
3976;DHT22;2002;48.812;9.180;2023-02-28T17:30:20;15.70;1.00
3976;DHT22;2002;48.812;9.180;2023-02-28T17:32:46;15.70;1.00
3976;DHT22;2002;48.812;9.180;2023-02-28T17:35:12;15.60;1.00
3976;DHT22;2002;48.812;9.180;2023-02-28T17:37:38;15.60;1.00
3976;DHT22;2002;48.812;9.180;2023-02-28T17:40:04;15.60;1.00
3976;DHT22;2002;48.812;9.180;2023-02-28T17:42:30;15.60;1.00
3976;DHT22;2002;48.812;9.180;2023-02-28T17:44:56;15.60;1.00
3976;DHT22;2002;48.812;9.180;2023-02-28T17:47:21;15.60;1.00
3976;DHT22;2002;48.812;9.180;2023-02-28T17:49:47;15.60;1.00
3976;DHT22;2002;48.812;9.180;2023-02-28T17:52:13;15.60;1.00
3976;DHT22;2002;48.812;9.180;2023-02-28T17:54:38;15.60;1.00
3976;DHT22;2002;48.812;9.180;2023-02-28T17:57:04;15.80;1.00
3976;DHT22;2002;48.812;9.180;2023-02-28T17:59:29;16.00;1.00
3976;DHT22;2002;48.812;9.180;2023-02-28T18:02:00;16.10;1.00
3976;DHT22;2002;48.812;9.180;2023-02-28T18:04:25;16.20;1.00
3976;DHT22;2002;48.812;9.180;2023-02-28T18:06:52;16.30;1.00
3976;DHT22;2002;48.812;9.180;2023-02-28T18:09:22;16.40;1.00
3976;DHT22;2002;48.812;9.180;2023-02-28T18:11:49;16.30;1.00
3976;DHT22;2002;48.812;9.180;2023-02-28T18:14:16;16.30;1.00
3976;DHT22;2002;48.812;9.180;2023-02-28T18:16:43;16.30;1.00
3976;DHT22;2002;48.812;9.180;2023-02-28T18:19:09;16.20;1.00
3976;DHT22;2002;48.812;9.180;2023-02-28T18:21:43;16.20;1.00
3976;DHT22;2002;48.812;9.180;2023-02-28T18:24:10;16.20;1.00
3976;DHT22;2002;48.812;9.180;2023-02-28T18:26:37;16.10;1.00
3976;DHT22;2002;48.812;9.180;2023-02-28T18:29:03;16.00;1.00
3976;DHT22;2002;48.812;9.180;2023-02-28T18:31:29;16.00;1.00
3976;DHT22;2002;48.812;9.180;2023-02-28T18:33:57;16.00;1.00
3976;DHT22;2002;48.812;9.180;2023-02-28T18:36:23;15.90;1.00
3976;DHT22;2002;48.812;9.180;2023-02-28T18:38:49;15.90;1.00
3976;DHT22;2002;48.812;9.180;2023-02-28T18:41:16;15.90;1.00